createdAt,value
2022-10-09T00:01:14.953Z,5.13
2022-10-09T00:03:44.700Z,4.40
2022-10-09T00:06:15.997Z,4.07
2022-10-09T00:08:44.601Z,4.25
2022-10-09T00:11:16.798Z,4.10
2022-10-09T00:13:45.299Z,4.80
2022-10-09T00:16:14.938Z,5.07
2022-10-09T00:18:43.501Z,4.15
2022-10-09T00:21:19.848Z,3.67
2022-10-09T00:23:50.992Z,3.22
2022-10-09T00:26:19.485Z,4.00
2022-10-09T00:28:49.559Z,4.35
2022-10-09T00:31:18.180Z,4.40
2022-10-09T00:33:46.507Z,5.80
2022-10-09T00:36:16.325Z,5.57
2022-10-09T00:38:45.474Z,4.40
2022-10-09T00:41:16.822Z,4.50
2022-10-09T00:43:47.979Z,4.20
2022-10-09T00:46:25.542Z,4.82
2022-10-09T00:49:00.287Z,4.30
2022-10-09T00:51:29.648Z,4.32
2022-10-09T00:53:59.816Z,3.40
2022-10-09T00:56:28.502Z,3.08
2022-10-09T00:58:58.836Z,3.90
2022-10-09T01:01:26.723Z,4.72
2022-10-09T01:03:54.425Z,4.32
2022-10-09T01:06:32.136Z,4.65
2022-10-09T01:09:08.211Z,5.60
2022-10-09T01:11:47.615Z,5.00
2022-10-09T01:14:21.263Z,4.13
2022-10-09T01:16:57.724Z,4.07
2022-10-09T01:19:41.927Z,3.90
2022-10-09T01:22:26.203Z,4.20
2022-10-09T01:25:00.923Z,4.15
2022-10-09T01:27:31.243Z,3.33
2022-10-09T01:30:02.732Z,3.37
2022-10-09T01:32:34.610Z,3.70
2022-10-09T01:35:04.593Z,4.07
2022-10-09T01:37:35.161Z,3.88
2022-10-09T01:40:04.861Z,4.30
2022-10-09T01:42:33.989Z,4.40
2022-10-09T01:45:04.129Z,2.95
2022-10-09T01:47:31.930Z,3.03
2022-10-09T01:50:05.221Z,3.90
2022-10-09T01:52:43.027Z,4.60
2022-10-09T01:55:25.191Z,3.72
2022-10-09T01:57:59.966Z,3.75
2022-10-09T02:00:29.451Z,4.80
2022-10-09T02:02:58.992Z,4.75
2022-10-09T02:05:31.312Z,5.28
2022-10-09T02:07:59.983Z,4.63
2022-10-09T02:10:28.187Z,3.55
2022-10-09T02:13:00.119Z,4.70
2022-10-09T02:15:32.758Z,5.33
2022-10-09T02:18:07.115Z,4.40
2022-10-09T02:20:39.447Z,4.10
2022-10-09T02:23:09.434Z,5.57
2022-10-09T02:25:37.364Z,5.10
2022-10-09T02:28:06.951Z,4.00
2022-10-09T02:30:40.393Z,4.40
2022-10-09T02:33:10.239Z,4.53
2022-10-09T02:35:39.208Z,4.22
2022-10-09T02:38:06.898Z,4.70
2022-10-09T02:40:36.816Z,5.07
2022-10-09T02:43:05.953Z,4.80
2022-10-09T02:45:33.632Z,4.70
2022-10-09T02:48:01.335Z,4.70
2022-10-09T02:50:29.043Z,5.00
2022-10-09T02:52:56.768Z,5.00
2022-10-09T02:55:24.412Z,4.57
2022-10-09T02:57:52.236Z,5.10
2022-10-09T03:00:21.786Z,6.60
2022-10-09T03:02:49.673Z,5.90
2022-10-09T03:05:17.607Z,6.05
2022-10-09T03:07:51.155Z,6.70
2022-10-09T03:10:19.796Z,6.67
2022-10-09T03:12:48.282Z,6.35
2022-10-09T03:15:16.629Z,4.57
2022-10-09T03:17:45.659Z,5.03
2022-10-09T03:20:13.351Z,6.00
2022-10-09T03:22:41.097Z,6.00
2022-10-09T03:25:10.961Z,7.72
2022-10-09T03:27:38.718Z,6.93
2022-10-09T03:30:10.003Z,7.50
2022-10-09T03:32:39.802Z,6.53
2022-10-09T03:35:09.737Z,5.37
2022-10-09T03:37:39.820Z,4.25
2022-10-09T03:40:08.273Z,5.57
2022-10-09T03:42:35.914Z,5.70
2022-10-09T03:45:04.783Z,4.70
2022-10-09T03:47:32.790Z,6.28
2022-10-09T03:50:00.498Z,6.38
2022-10-09T03:52:29.725Z,6.32
2022-10-09T03:54:57.528Z,7.50
2022-10-09T03:57:25.223Z,6.27
2022-10-09T03:59:52.882Z,5.90
2022-10-09T04:02:20.626Z,4.22
2022-10-09T04:04:48.347Z,6.07
2022-10-09T04:07:16.065Z,5.03
2022-10-09T04:09:47.570Z,4.30
2022-10-09T04:12:15.307Z,5.07
2022-10-09T04:14:43.189Z,4.82
2022-10-09T04:17:11.007Z,4.80
2022-10-09T04:19:38.746Z,5.40
2022-10-09T04:22:06.495Z,4.57
2022-10-09T04:24:34.167Z,3.47
2022-10-09T04:27:03.396Z,3.47
2022-10-09T04:29:31.102Z,3.63
2022-10-09T04:31:58.860Z,5.35
2022-10-09T04:34:26.638Z,5.78
2022-10-09T04:36:54.359Z,6.03
2022-10-09T04:39:24.290Z,5.38
2022-10-09T04:41:51.943Z,5.10
2022-10-09T04:44:23.114Z,5.40
2022-10-09T04:46:52.020Z,4.25
2022-10-09T04:49:19.831Z,4.75
2022-10-09T04:51:47.498Z,6.00
2022-10-09T04:54:15.241Z,6.70
2022-10-09T04:56:42.933Z,5.60
2022-10-09T04:59:10.752Z,6.00
2022-10-09T05:01:40.009Z,5.40
2022-10-09T05:04:07.976Z,4.80
2022-10-09T05:06:35.900Z,4.70
2022-10-09T05:09:04.153Z,5.80
2022-10-09T05:11:31.955Z,4.82
2022-10-09T05:14:01.974Z,6.18
2022-10-09T05:16:31.555Z,5.63
2022-10-09T05:19:01.068Z,5.32
2022-10-09T05:21:29.681Z,4.07
2022-10-09T05:23:57.699Z,3.20
2022-10-09T05:26:26.778Z,3.67
2022-10-09T05:28:54.649Z,4.03
2022-10-09T05:31:24.851Z,5.15
2022-10-09T05:33:53.002Z,5.38
2022-10-09T05:36:22.102Z,4.57
2022-10-09T05:38:50.030Z,4.70
2022-10-09T05:41:19.463Z,3.75
2022-10-09T05:43:48.997Z,3.47
2022-10-09T05:46:18.672Z,3.25
2022-10-09T05:48:48.659Z,3.60
2022-10-09T05:51:18.444Z,5.22
2022-10-09T05:53:48.972Z,5.80
2022-10-09T05:56:18.964Z,4.65
2022-10-09T05:58:51.118Z,5.50
2022-10-09T06:01:20.459Z,4.82
2022-10-09T06:03:50.726Z,5.25
2022-10-09T06:06:20.509Z,4.90
2022-10-09T06:08:50.520Z,4.82
2022-10-09T06:11:20.302Z,5.10
2022-10-09T06:13:50.158Z,5.20
2022-10-09T06:16:19.070Z,4.67
2022-10-09T06:18:49.568Z,3.60
2022-10-09T06:21:18.003Z,4.37
2022-10-09T06:23:46.060Z,3.55
2022-10-09T06:26:15.145Z,3.65
2022-10-09T06:28:44.953Z,3.63
2022-10-09T06:31:15.039Z,5.17
2022-10-09T06:33:44.445Z,3.97
2022-10-09T06:36:14.782Z,4.18
2022-10-09T06:38:45.075Z,3.90
2022-10-09T06:41:15.934Z,3.67
2022-10-09T06:43:44.681Z,3.60
2022-10-09T06:46:14.840Z,3.47
2022-10-09T06:48:42.591Z,5.30
2022-10-09T06:51:12.438Z,5.07
2022-10-09T06:53:42.663Z,3.63
2022-10-09T06:56:11.381Z,5.10
2022-10-09T06:58:41.429Z,4.80
2022-10-09T07:01:11.088Z,4.57
2022-10-09T07:03:40.628Z,4.60
2022-10-09T07:06:10.930Z,4.60
2022-10-09T07:08:39.857Z,4.70
2022-10-09T07:11:12.239Z,4.40
2022-10-09T07:13:41.790Z,4.32
2022-10-09T07:16:09.799Z,3.65
2022-10-09T07:18:38.820Z,3.88
2022-10-09T07:21:08.646Z,4.78
2022-10-09T07:23:36.971Z,4.22
2022-10-09T07:26:11.293Z,4.03
2022-10-09T07:28:39.154Z,4.72
2022-10-09T07:31:11.564Z,4.90
2022-10-09T07:33:40.067Z,4.45
2022-10-09T07:36:08.486Z,4.30
2022-10-09T07:38:36.508Z,4.18
2022-10-09T07:41:06.168Z,4.78
2022-10-09T07:43:36.014Z,3.97
2022-10-09T07:46:05.179Z,3.90
2022-10-09T07:48:35.269Z,4.50
2022-10-09T07:51:09.388Z,4.70
2022-10-09T07:53:37.578Z,3.87
2022-10-09T07:56:06.380Z,4.10
2022-10-09T07:58:34.728Z,4.20
2022-10-09T08:01:06.921Z,3.90
2022-10-09T08:03:37.275Z,4.03
2022-10-09T08:06:05.237Z,3.73
2022-10-09T08:08:33.119Z,4.17
2022-10-09T08:11:01.070Z,3.78
2022-10-09T08:13:31.101Z,4.28
2022-10-09T08:15:59.426Z,3.97
2022-10-09T08:18:27.226Z,4.20
2022-10-09T08:21:00.608Z,4.25
2022-10-09T08:23:28.605Z,3.80
2022-10-09T08:25:56.808Z,3.60
2022-10-09T08:28:24.723Z,3.30
2022-10-09T08:30:52.550Z,3.67
2022-10-09T08:33:22.052Z,3.58
2022-10-09T08:35:50.192Z,3.78
2022-10-09T08:38:44.767Z,3.80
2022-10-09T08:41:10.984Z,3.33
2022-10-09T08:43:43.299Z,3.55
2022-10-09T08:46:20.936Z,3.22
2022-10-09T08:48:50.336Z,3.33
2022-10-09T08:51:22.852Z,3.85
2022-10-09T08:53:59.966Z,3.28
2022-10-09T08:56:28.329Z,3.33
2022-10-09T08:58:57.116Z,3.08
2022-10-09T09:01:34.613Z,3.30
2022-10-09T09:04:23.981Z,3.50
2022-10-09T09:07:02.501Z,3.42
2022-10-09T09:09:43.599Z,2.85
2022-10-09T09:12:19.511Z,2.78
2022-10-09T09:15:00.155Z,2.60
2022-10-09T09:17:36.587Z,2.20
2022-10-09T09:20:11.186Z,2.67
2022-10-09T09:22:44.893Z,3.00
2022-10-09T09:25:23.450Z,2.60
2022-10-09T09:27:53.376Z,2.42
2022-10-09T09:30:25.939Z,2.30
2022-10-09T09:33:01.669Z,2.25
2022-10-09T09:35:37.696Z,2.55
2022-10-09T09:38:05.517Z,2.47
2022-10-09T09:40:37.725Z,2.10
2022-10-09T09:43:18.126Z,1.80
2022-10-09T09:45:46.537Z,2.25
2022-10-09T09:48:18.598Z,2.00
2022-10-09T09:50:56.415Z,1.80
2022-10-09T09:53:37.692Z,1.85
2022-10-09T09:56:07.546Z,2.17
2022-10-09T09:58:39.177Z,1.90
2022-10-09T10:01:08.314Z,1.85
2022-10-09T10:03:37.253Z,2.10
2022-10-09T10:06:05.386Z,1.80
2022-10-09T10:08:35.164Z,1.80
2022-10-09T10:11:06.751Z,1.77
2022-10-09T10:13:38.602Z,1.83
2022-10-09T10:16:09.272Z,1.90
2022-10-09T10:18:42.788Z,1.90
2022-10-09T10:21:13.535Z,1.75
2022-10-09T10:23:45.264Z,1.53
2022-10-09T10:26:25.555Z,1.67
2022-10-09T10:29:00.179Z,1.50
2022-10-09T10:31:39.823Z,1.77
2022-10-09T10:34:15.261Z,1.70
2022-10-09T10:36:43.186Z,1.60
2022-10-09T10:39:21.361Z,1.30
2022-10-09T10:41:52.664Z,1.70
2022-10-09T10:44:36.227Z,1.80
2022-10-09T10:47:11.921Z,1.60
2022-10-09T10:49:39.731Z,1.83
2022-10-09T10:52:19.475Z,1.90
2022-10-09T10:54:54.726Z,1.77
2022-10-09T10:57:30.969Z,1.88
2022-10-09T11:00:06.984Z,1.48
2022-10-09T11:02:49.435Z,1.70
2022-10-09T11:05:28.012Z,1.60
2022-10-09T11:08:30.219Z,1.67
2022-10-09T11:11:06.728Z,1.50
2022-10-09T11:13:40.336Z,1.30
2022-10-09T11:16:24.404Z,1.60
2022-10-09T11:19:05.578Z,1.60
2022-10-09T11:21:48.709Z,1.60
2022-10-09T11:24:30.981Z,1.47
2022-10-09T11:27:07.169Z,1.23
2022-10-09T11:29:40.811Z,1.83
2022-10-09T11:32:16.676Z,1.45
2022-10-09T11:34:52.501Z,1.10
2022-10-09T11:37:24.566Z,1.60
2022-10-09T11:39:52.703Z,1.90
2022-10-09T11:42:24.993Z,1.87
2022-10-09T11:45:03.467Z,1.30
2022-10-09T11:47:39.309Z,1.33
2022-10-09T11:50:24.392Z,1.30
2022-10-09T11:52:59.166Z,1.25
2022-10-09T11:55:32.098Z,1.50
2022-10-09T11:58:09.283Z,1.10
2022-10-09T12:00:38.292Z,1.38
2022-10-09T12:03:08.472Z,1.27
2022-10-09T12:05:42.046Z,1.30
2022-10-09T12:08:15.395Z,1.20
2022-10-09T12:10:53.537Z,1.30
2022-10-09T12:13:42.827Z,1.33
2022-10-09T12:16:29.271Z,1.20
2022-10-09T12:19:01.311Z,1.20
2022-10-09T12:21:32.885Z,1.50
2022-10-09T12:24:01.196Z,1.50
2022-10-09T12:26:30.213Z,1.20
2022-10-09T12:29:01.914Z,1.48
2022-10-09T12:31:34.375Z,1.33
2022-10-09T12:34:14.803Z,1.20
2022-10-09T12:36:42.598Z,1.50
2022-10-09T12:39:14.733Z,1.20
2022-10-09T12:41:46.072Z,1.17
2022-10-09T12:44:23.627Z,1.40
2022-10-09T12:46:52.315Z,1.40
2022-10-09T12:49:25.274Z,1.55
2022-10-09T12:51:56.204Z,1.63
2022-10-09T12:54:25.955Z,1.70
2022-10-09T12:56:54.377Z,1.50
2022-10-09T12:59:24.167Z,1.70
2022-10-09T13:01:55.469Z,1.17
2022-10-09T13:04:28.776Z,1.30
2022-10-09T13:07:00.586Z,1.55
2022-10-09T13:09:35.007Z,1.35
2022-10-09T13:12:08.867Z,1.30
2022-10-09T13:14:42.245Z,1.17
2022-10-09T13:17:24.735Z,1.73
2022-10-09T13:19:56.768Z,1.40
2022-10-09T13:22:25.746Z,1.40
2022-10-09T13:24:55.458Z,1.30
2022-10-09T13:27:25.955Z,1.40
2022-10-09T13:29:54.558Z,1.50
2022-10-09T13:32:24.102Z,1.40
2022-10-09T13:34:54.893Z,1.30
2022-10-09T13:37:25.489Z,1.50
2022-10-09T13:39:57.376Z,1.20
2022-10-09T13:42:27.678Z,1.15
2022-10-09T13:44:57.825Z,1.25
2022-10-09T13:47:27.883Z,1.35
2022-10-09T13:49:57.677Z,1.33
2022-10-09T13:52:26.881Z,1.20
2022-10-09T13:54:54.602Z,1.40
2022-10-09T13:57:22.288Z,1.63
2022-10-09T13:59:50.269Z,1.48
2022-10-09T14:02:19.195Z,1.40
2022-10-09T14:04:47.241Z,1.13
2022-10-09T14:07:17.405Z,1.10
2022-10-09T14:09:46.537Z,1.40
2022-10-09T14:12:14.341Z,1.45
2022-10-09T14:14:42.168Z,1.47
2022-10-09T14:17:09.886Z,1.40
2022-10-09T14:19:37.656Z,1.20
2022-10-09T14:22:05.460Z,1.20
2022-10-09T14:24:33.412Z,1.30
2022-10-09T14:27:03.007Z,1.50
2022-10-09T14:29:30.919Z,1.42
2022-10-09T14:31:59.221Z,1.48
2022-10-09T14:34:26.955Z,1.50
2022-10-09T14:36:54.693Z,1.27
2022-10-09T14:39:22.485Z,1.27
2022-10-09T14:41:50.237Z,1.20
2022-10-09T14:44:19.323Z,1.50
2022-10-09T14:46:46.998Z,1.55
2022-10-09T14:49:15.100Z,1.63
2022-10-09T14:51:42.830Z,1.70
2022-10-09T14:54:13.120Z,1.50
2022-10-09T14:56:44.014Z,1.50
2022-10-09T14:59:12.238Z,1.57
2022-10-09T15:01:45.095Z,1.60
2022-10-09T15:04:14.882Z,1.40
2022-10-09T15:06:42.608Z,1.63
2022-10-09T15:09:12.824Z,1.40
2022-10-09T15:11:40.611Z,1.60
2022-10-09T15:14:08.358Z,1.58
2022-10-09T15:16:36.665Z,1.55
2022-10-09T15:19:06.130Z,1.50
2022-10-09T15:21:37.294Z,1.33
2022-10-09T15:24:06.580Z,1.50
2022-10-09T15:26:36.703Z,1.60
2022-10-09T15:29:05.923Z,1.70
2022-10-09T15:31:35.458Z,1.60
2022-10-09T15:34:05.503Z,1.50
2022-10-09T15:36:36.251Z,1.67
2022-10-09T15:39:07.196Z,1.77
2022-10-09T15:41:36.180Z,1.70
2022-10-09T15:44:08.286Z,1.40
2022-10-09T15:46:36.075Z,1.60
2022-10-09T15:49:05.201Z,1.35
2022-10-09T15:51:33.356Z,1.60
2022-10-09T15:54:01.972Z,1.55
2022-10-09T15:56:29.956Z,1.43
2022-10-09T15:58:59.010Z,1.50
2022-10-09T16:01:27.343Z,1.70
2022-10-09T16:03:55.762Z,2.00
2022-10-09T16:06:27.463Z,2.03
2022-10-09T16:08:56.577Z,2.00
2022-10-09T16:11:26.462Z,2.10
2022-10-09T16:13:56.214Z,2.40
2022-10-09T16:16:28.377Z,2.35
2022-10-09T16:18:57.363Z,2.53
2022-10-09T16:21:28.461Z,2.67
2022-10-09T16:23:59.261Z,2.55
2022-10-09T16:26:30.398Z,2.40
2022-10-09T16:28:59.855Z,2.80
2022-10-09T16:31:30.510Z,2.20
2022-10-09T16:33:58.933Z,2.30
2022-10-09T16:36:28.540Z,2.50
2022-10-09T16:38:57.203Z,2.93
2022-10-09T16:41:25.673Z,2.63
2022-10-09T16:43:55.279Z,2.72
2022-10-09T16:46:25.026Z,2.90
2022-10-09T16:48:55.174Z,2.67
2022-10-09T16:51:24.891Z,2.30
2022-10-09T16:53:55.819Z,2.75
2022-10-09T16:56:25.837Z,2.50
2022-10-09T16:58:56.286Z,2.55
2022-10-09T17:01:24.721Z,2.63
2022-10-09T17:03:55.223Z,2.90
2022-10-09T17:06:24.572Z,2.85
2022-10-09T17:08:58.021Z,3.08
2022-10-09T17:11:27.170Z,3.20
2022-10-09T17:13:56.656Z,2.85
2022-10-09T17:16:27.421Z,2.90
2022-10-09T17:18:55.356Z,2.60
2022-10-09T17:21:23.184Z,2.90
2022-10-09T17:23:56.585Z,2.97
2022-10-09T17:26:25.781Z,2.72
2022-10-09T17:28:54.271Z,2.92
2022-10-09T17:31:24.742Z,3.07
2022-10-09T17:33:55.530Z,2.80
2022-10-09T17:36:25.954Z,2.97
2022-10-09T17:38:54.266Z,3.15
2022-10-09T17:41:25.177Z,2.90
2022-10-09T17:43:54.325Z,2.60
2022-10-09T17:46:22.773Z,3.05
2022-10-09T17:48:53.301Z,2.90
2022-10-09T17:51:25.369Z,2.83
2022-10-09T17:54:14.892Z,3.10
2022-10-09T17:56:45.436Z,2.95
2022-10-09T17:59:15.684Z,2.90
2022-10-09T18:01:43.850Z,2.90
2022-10-09T18:04:16.236Z,3.47
2022-10-09T18:06:44.103Z,2.70
2022-10-09T18:09:12.246Z,3.25
2022-10-09T18:11:40.110Z,2.67
2022-10-09T18:14:09.802Z,2.80
2022-10-09T18:16:38.397Z,2.35
2022-10-09T18:19:12.081Z,2.50
2022-10-09T18:21:41.784Z,3.10
2022-10-09T18:24:09.972Z,3.22
2022-10-09T18:26:37.724Z,3.03
2022-10-09T18:29:09.279Z,2.55
2022-10-09T18:31:38.460Z,3.30
2022-10-09T18:34:06.367Z,3.00
2022-10-09T18:36:34.879Z,3.45
2022-10-09T18:39:05.948Z,2.78
2022-10-09T18:41:34.170Z,2.70
2022-10-09T18:44:02.737Z,2.60
2022-10-09T18:46:36.591Z,2.47
2022-10-09T18:49:08.170Z,3.90
2022-10-09T18:51:38.807Z,3.28
2022-10-09T18:54:08.576Z,3.13
2022-10-09T18:56:37.672Z,3.20
2022-10-09T18:59:07.998Z,3.00
2022-10-09T19:01:37.229Z,3.80
2022-10-09T19:04:05.380Z,3.83
2022-10-09T19:06:35.987Z,2.70
2022-10-09T19:09:04.457Z,3.40
2022-10-09T19:11:34.476Z,3.20
2022-10-09T19:14:02.354Z,4.07
2022-10-09T19:16:31.733Z,3.10
2022-10-09T19:19:01.310Z,3.40
2022-10-09T19:21:29.168Z,3.58
2022-10-09T19:23:56.881Z,3.43
2022-10-09T19:26:24.738Z,4.35
2022-10-09T19:28:52.559Z,4.00
2022-10-09T19:31:20.308Z,3.83
2022-10-09T19:33:48.603Z,3.60
2022-10-09T19:36:17.702Z,3.28
2022-10-09T19:38:45.704Z,3.60
2022-10-09T19:41:15.476Z,4.20
2022-10-09T19:43:43.632Z,4.07
2022-10-09T19:46:14.090Z,5.00
2022-10-09T19:48:44.269Z,4.25
2022-10-09T19:51:14.801Z,4.32
2022-10-09T19:53:46.863Z,3.40
2022-10-09T19:56:19.263Z,2.55
2022-10-09T19:58:49.112Z,3.30
2022-10-09T20:01:20.842Z,3.40
2022-10-09T20:03:49.734Z,2.83
2022-10-09T20:06:17.427Z,3.17
2022-10-09T20:08:46.492Z,3.97
2022-10-09T20:11:14.273Z,3.70
2022-10-09T20:13:43.719Z,4.60
2022-10-09T20:16:14.019Z,6.60
2022-10-09T20:18:43.243Z,9.60
2022-10-09T20:21:12.716Z,8.80
2022-10-09T20:23:40.751Z,8.02
2022-10-09T20:26:12.512Z,13.10
2022-10-09T20:28:40.649Z,9.52
2022-10-09T20:31:14.559Z,7.87
2022-10-09T20:33:43.149Z,12.75
2022-10-09T20:36:21.269Z,8.77
2022-10-09T20:38:49.044Z,6.65
2022-10-09T20:41:18.788Z,4.72
2022-10-09T20:43:51.299Z,4.45
2022-10-09T20:46:20.947Z,5.22
2022-10-09T20:48:49.148Z,4.85
2022-10-09T20:51:19.786Z,5.55
2022-10-09T20:53:48.064Z,4.70
2022-10-09T20:56:15.851Z,4.50
2022-10-09T20:58:44.987Z,4.60
2022-10-09T21:01:17.046Z,4.88
2022-10-09T21:03:47.530Z,4.65
2022-10-09T21:06:18.813Z,4.72
2022-10-09T21:08:46.956Z,5.00
2022-10-09T21:11:16.977Z,5.57
2022-10-09T21:13:47.321Z,5.33
2022-10-09T21:16:16.877Z,5.90
2022-10-09T21:18:47.250Z,5.17
2022-10-09T21:21:16.554Z,5.93
2022-10-09T21:23:46.166Z,5.60
2022-10-09T21:26:15.770Z,6.07
2022-10-09T21:28:43.921Z,5.57
2022-10-09T21:31:15.841Z,5.70
2022-10-09T21:33:44.065Z,5.63
2022-10-09T21:36:13.288Z,6.00
2022-10-09T21:38:40.979Z,5.50
2022-10-09T21:41:08.646Z,5.20
2022-10-09T21:43:36.351Z,5.13
2022-10-09T21:46:04.129Z,5.80
2022-10-09T21:48:33.288Z,5.50
2022-10-09T21:51:01.037Z,5.30
2022-10-09T21:53:28.777Z,5.47
2022-10-09T21:55:56.443Z,5.55
2022-10-09T21:58:24.239Z,4.25
2022-10-09T22:00:56.528Z,5.03
2022-10-09T22:03:25.314Z,5.03
2022-10-09T22:05:54.837Z,5.15
2022-10-09T22:08:23.167Z,5.22
2022-10-09T22:10:51.660Z,5.10
2022-10-09T22:13:21.245Z,5.20
2022-10-09T22:15:51.366Z,5.00
2022-10-09T22:18:20.412Z,4.90
2022-10-09T22:20:50.038Z,5.10
2022-10-09T22:23:20.429Z,4.97
2022-10-09T22:25:57.279Z,5.20
2022-10-09T22:28:25.193Z,5.25
2022-10-09T22:31:02.186Z,4.97
2022-10-09T22:33:30.078Z,4.87
2022-10-09T22:36:09.728Z,5.13
2022-10-09T22:38:39.955Z,5.40
2022-10-09T22:41:10.216Z,5.22
2022-10-09T22:43:39.477Z,5.20
2022-10-09T22:46:09.851Z,4.10
2022-10-09T22:48:38.061Z,5.10
2022-10-09T22:51:07.529Z,5.10
2022-10-09T22:53:36.533Z,4.68
2022-10-09T22:56:06.894Z,5.20
2022-10-09T22:58:35.222Z,4.80
2022-10-09T23:01:05.346Z,4.83
2022-10-09T23:03:33.174Z,5.40
2022-10-09T23:06:12.111Z,5.27
2022-10-09T23:08:44.136Z,5.38
2022-10-09T23:11:17.243Z,5.13
2022-10-09T23:13:45.669Z,4.70
2022-10-09T23:16:15.042Z,3.95
2022-10-09T23:18:43.211Z,4.90
2022-10-09T23:21:13.463Z,5.87
2022-10-09T23:23:41.900Z,3.90
2022-10-09T23:26:12.076Z,4.65
2022-10-09T23:28:41.784Z,4.63
2022-10-09T23:31:10.995Z,5.30
2022-10-09T23:33:40.401Z,4.10
2022-10-09T23:36:09.669Z,3.70
2022-10-09T23:38:38.488Z,3.10
2022-10-09T23:41:08.228Z,4.80
2022-10-09T23:43:38.260Z,4.00
2022-10-09T23:46:09.453Z,4.30
2022-10-09T23:48:37.446Z,4.78
2022-10-09T23:51:06.555Z,3.95
2022-10-09T23:53:34.570Z,4.05
2022-10-09T23:56:05.900Z,3.67
2022-10-09T23:58:33.562Z,3.90
